Time;durP1;ratioP1;P1;durP2;ratioP2;P2;SDS_P1;SDS_P2;PMS_P1;PMS_P2;Temp;Humidity;BMP_temperature;BMP_pressure;BME280_temperature;BME280_humidity;BME280_pressure;Samples;Min_cycle;Max_cycle;Signal;HPM_P1;HPM_P2
2022/12/16 00:01:53;;;;;;;;;;;14.70;44.90;;;;;;4999864;28;20036;-88
2022/12/16 00:04:19;;;;;;;;;;;14.70;45.00;;;;;;5017264;28;19980;-88
2022/12/16 00:06:44;;;;;;;;;;;14.60;45.00;;;;;;4999370;28;19920;-88
2022/12/16 00:09:10;;;;;;;;;;;14.60;45.00;;;;;;5000885;28;19920;-87
2022/12/16 00:11:36;;;;;;;;;;;14.60;45.00;;;;;;5000930;28;19910;-88
2022/12/16 00:14:01;;;;;;;;;;;14.50;45.10;;;;;;5000592;28;20338;-88
2022/12/16 00:16:27;;;;;;;;;;;14.50;45.10;;;;;;5000632;28;19921;-88
2022/12/16 00:18:53;;;;;;;;;;;14.50;45.20;;;;;;4999842;28;20279;-88
2022/12/16 00:21:19;;;;;;;;;;;14.40;45.20;;;;;;4998678;28;19928;-88
2022/12/16 00:23:45;;;;;;;;;;;14.40;45.20;;;;;;4997257;28;19913;-87
2022/12/16 00:26:11;;;;;;;;;;;14.30;45.30;;;;;;4999016;28;19936;-88
2022/12/16 00:28:37;;;;;;;;;;;14.30;45.30;;;;;;5001177;28;19910;-85
2022/12/16 00:31:03;;;;;;;;;;;14.20;45.40;;;;;;5001533;28;19941;-85
2022/12/16 00:33:28;;;;;;;;;;;14.20;45.40;;;;;;5001673;28;19922;-85
2022/12/16 00:35:54;;;;;;;;;;;14.10;45.50;;;;;;5002530;28;19917;-85
2022/12/16 00:38:20;;;;;;;;;;;14.10;45.50;;;;;;5000753;28;19910;-85
2022/12/16 00:40:46;;;;;;;;;;;14.00;45.50;;;;;;5017262;28;19971;-85
2022/12/16 00:43:12;;;;;;;;;;;13.90;45.50;;;;;;4998673;28;19910;-85
2022/12/16 00:45:38;;;;;;;;;;;13.90;45.60;;;;;;4999871;28;20264;-85
2022/12/16 00:48:03;;;;;;;;;;;13.80;45.60;;;;;;4998571;28;19920;-85
2022/12/16 00:50:30;;;;;;;;;;;13.80;45.70;;;;;;4999547;28;19917;-85
2022/12/16 00:52:55;;;;;;;;;;;13.80;45.70;;;;;;4999057;28;19920;-85
2022/12/16 00:55:21;;;;;;;;;;;13.80;45.70;;;;;;4998409;28;20162;-85
2022/12/16 00:57:46;;;;;;;;;;;13.80;45.60;;;;;;4997919;28;19917;-85
2022/12/16 01:00:13;;;;;;;;;;;13.80;45.50;;;;;;4999468;28;20124;-85
2022/12/16 01:02:39;;;;;;;;;;;13.80;45.50;;;;;;5015104;28;19914;-85
2022/12/16 01:05:05;;;;;;;;;;;13.90;45.50;;;;;;5015940;28;19918;-85
2022/12/16 01:07:31;;;;;;;;;;;13.90;45.50;;;;;;5016624;28;19917;-85
2022/12/16 01:09:57;;;;;;;;;;;13.80;45.40;;;;;;4998220;28;19917;-85
2022/12/16 01:12:22;;;;;;;;;;;13.80;45.50;;;;;;4997775;28;19948;-85
2022/12/16 01:14:48;;;;;;;;;;;13.70;45.40;;;;;;4997065;28;19953;-85
2022/12/16 01:17:14;;;;;;;;;;;13.70;45.40;;;;;;4996798;28;20267;-85
2022/12/16 01:19:40;;;;;;;;;;;13.70;45.50;;;;;;5015021;28;19917;-86
2022/12/16 01:22:05;;;;;;;;;;;13.60;45.50;;;;;;4998415;28;19909;-85
2022/12/16 01:24:31;;;;;;;;;;;13.60;45.50;;;;;;5016057;28;19952;-85
2022/12/16 01:26:57;;;;;;;;;;;13.50;45.60;;;;;;4997564;28;20007;-85
2022/12/16 01:29:22;;;;;;;;;;;13.50;45.60;;;;;;4996986;28;19909;-85
2022/12/16 01:31:48;;;;;;;;;;;13.50;45.70;;;;;;4996919;28;19918;-85
2022/12/16 01:34:13;;;;;;;;;;;13.50;45.70;;;;;;4998432;28;20016;-85
2022/12/16 01:36:39;;;;;;;;;;;13.50;45.60;;;;;;5014975;28;19910;-85
2022/12/16 01:39:05;;;;;;;;;;;13.50;45.60;;;;;;4997531;28;19913;-85
2022/12/16 01:41:30;;;;;;;;;;;13.60;45.90;;;;;;4996241;28;19980;-85
2022/12/16 01:44:13;;;;;;;;;;;13.60;45.40;;;;;;4996427;28;20006;-85
2022/12/16 01:46:39;;;;;;;;;;;13.60;45.40;;;;;;4995927;28;19968;-85
2022/12/16 01:49:09;;;;;;;;;;;13.60;45.70;;;;;;4998578;28;20242;-85
2022/12/16 01:51:36;;;;;;;;;;;13.50;45.30;;;;;;4997683;28;19917;-85
2022/12/16 01:54:05;;;;;;;;;;;13.60;45.40;;;;;;4997248;28;19967;-85
2022/12/16 01:56:31;;;;;;;;;;;13.50;45.30;;;;;;4997659;28;19914;-85
2022/12/16 01:58:58;;;;;;;;;;;13.50;45.40;;;;;;4997502;28;19920;-85
2022/12/16 02:01:24;;;;;;;;;;;13.40;45.40;;;;;;5014317;28;19979;-85
2022/12/16 02:03:50;;;;;;;;;;;13.40;45.40;;;;;;4999393;28;19981;-85
2022/12/16 02:06:16;;;;;;;;;;;13.40;45.40;;;;;;5015666;28;20287;-85
2022/12/16 02:08:41;;;;;;;;;;;13.30;45.40;;;;;;4999250;28;19956;-85
2022/12/16 02:11:07;;;;;;;;;;;13.30;45.50;;;;;;4998781;28;19909;-85
2022/12/16 02:13:45;;;;;;;;;;;13.30;45.50;;;;;;5030527;28;19909;-85
2022/12/16 02:16:14;;;;;;;;;;;13.20;45.50;;;;;;5031291;28;19917;-85
2022/12/16 02:18:55;;;;;;;;;;;13.30;45.50;;;;;;5030972;28;19913;-85
2022/12/16 02:21:26;;;;;;;;;;;13.30;45.40;;;;;;5031123;28;19957;-85
2022/12/16 02:24:23;;;;;;;;;;;13.30;45.30;;;;;;4997119;28;19914;-85
2022/12/16 02:26:54;;;;;;;;;;;13.40;45.30;;;;;;4977113;28;19948;-85
2022/12/16 02:29:20;;;;;;;;;;;13.40;45.20;;;;;;5028677;28;20223;-85
2022/12/16 02:31:57;;;;;;;;;;;13.40;45.20;;;;;;5029296;28;20256;-85
2022/12/16 02:34:32;;;;;;;;;;;13.30;45.20;;;;;;5030913;28;20193;-85
2022/12/16 02:37:07;;;;;;;;;;;13.30;45.20;;;;;;5030593;28;19943;-85
2022/12/16 02:39:37;;;;;;;;;;;13.30;45.20;;;;;;5031463;28;19928;-85
2022/12/16 02:42:11;;;;;;;;;;;13.30;45.20;;;;;;4998185;28;19909;-85
2022/12/16 02:44:39;;;;;;;;;;;13.20;45.20;;;;;;4997923;28;19910;-85
2022/12/16 02:47:05;;;;;;;;;;;13.20;45.20;;;;;;5029553;28;20300;-85
2022/12/16 02:49:31;;;;;;;;;;;13.20;45.30;;;;;;5014826;28;19921;-85
2022/12/16 02:51:58;;;;;;;;;;;13.10;45.30;;;;;;5029505;28;20310;-85
2022/12/16 02:54:24;;;;;;;;;;;13.10;45.30;;;;;;4998685;28;19917;-85
2022/12/16 02:56:53;;;;;;;;;;;13.10;45.40;;;;;;4997133;28;20025;-85
2022/12/16 02:59:28;;;;;;;;;;;13.10;45.40;;;;;;5030536;28;19917;-85
2022/12/16 03:01:59;;;;;;;;;;;13.10;45.30;;;;;;5030453;28;19915;-85
2022/12/16 03:04:29;;;;;;;;;;;13.10;45.60;;;;;;4997860;28;19909;-85
2022/12/16 03:06:55;;;;;;;;;;;13.20;45.10;;;;;;5015034;28;20160;-85
2022/12/16 03:09:25;;;;;;;;;;;13.20;45.10;;;;;;4998029;28;19910;-86
2022/12/16 03:11:53;;;;;;;;;;;13.20;45.10;;;;;;5015314;28;19964;-86
2022/12/16 03:14:19;;;;;;;;;;;13.20;45.10;;;;;;4998146;28;20176;-86
2022/12/16 03:16:46;;;;;;;;;;;13.20;45.00;;;;;;5015430;28;19984;-86
2022/12/16 03:19:12;;;;;;;;;;;13.10;45.00;;;;;;4998332;28;20251;-86
2022/12/16 03:21:50;;;;;;;;;;;13.10;45.00;;;;;;4998651;28;20246;-86
2022/12/16 03:24:15;;;;;;;;;;;13.10;45.00;;;;;;5015693;28;19948;-86
2022/12/16 03:26:54;;;;;;;;;;;13.10;45.10;;;;;;4998264;28;19910;-86
2022/12/16 03:29:30;;;;;;;;;;;13.10;45.10;;;;;;4998614;28;19910;-86
2022/12/16 03:32:04;;;;;;;;;;;13.00;45.10;;;;;;4998073;28;20004;-86
2022/12/16 03:34:39;;;;;;;;;;;13.00;45.10;;;;;;4998716;28;19963;-86
2022/12/16 03:37:07;;;;;;;;;;;12.90;45.10;;;;;;4997790;28;19921;-86
2022/12/16 03:39:35;;;;;;;;;;;12.90;45.10;;;;;;4997644;28;20266;-86
2022/12/16 03:42:02;;;;;;;;;;;12.90;45.10;;;;;;5015582;28;20017;-86
2022/12/16 03:44:27;;;;;;;;;;;13.00;45.00;;;;;;5015070;28;19913;-86
2022/12/16 03:46:53;;;;;;;;;;;13.00;44.90;;;;;;4998762;28;19910;-86
2022/12/16 03:49:20;;;;;;;;;;;13.10;45.00;;;;;;4997984;28;19910;-86
2022/12/16 03:51:45;;;;;;;;;;;13.00;44.90;;;;;;5000109;28;19917;-86
2022/12/16 03:54:11;;;;;;;;;;;13.10;44.90;;;;;;5001647;28;19909;-86
2022/12/16 03:56:37;;;;;;;;;;;13.10;44.90;;;;;;5000851;28;19909;-86
2022/12/16 03:59:02;;;;;;;;;;;13.00;44.80;;;;;;4999410;28;19936;-86
2022/12/16 04:01:28;;;;;;;;;;;13.00;44.80;;;;;;5001820;28;19914;-86
2022/12/16 04:03:53;;;;;;;;;;;13.00;44.90;;;;;;5001430;28;19910;-86
2022/12/16 04:06:19;;;;;;;;;;;13.00;44.90;;;;;;5001486;28;19910;-86
2022/12/16 04:08:45;;;;;;;;;;;12.90;44.90;;;;;;5000816;28;19909;-86
2022/12/16 04:25:17;;;;;;;;;;;12.90;44.80;;;;;;5112508;27;19912;-85
2022/12/16 04:27:46;;;;;;;;;;;12.90;44.80;;;;;;5129768;27;20172;-86
2022/12/16 04:30:21;;;;;;;;;;;12.90;44.70;;;;;;5112090;28;19991;-86
